createdAt,value
2019-02-23T00:01:44.991Z,81.50
2019-02-23T00:04:13.238Z,81.40
2019-02-23T00:06:41.470Z,81.40
2019-02-23T00:09:09.700Z,81.90
2019-02-23T00:11:37.934Z,81.80
2019-02-23T00:14:06.205Z,82.40
2019-02-23T00:16:34.456Z,82.40
2019-02-23T00:19:02.687Z,82.30
2019-02-23T00:21:30.930Z,82.50
2019-02-23T00:23:59.177Z,82.40
2019-02-23T00:26:27.455Z,82.90
2019-02-23T00:28:55.666Z,83.20
2019-02-23T00:31:23.887Z,83.30
2019-02-23T00:33:52.130Z,83.20
2019-02-23T00:36:20.362Z,83.10
2019-02-23T00:38:48.610Z,83.10
2019-02-23T00:41:16.852Z,83.30
2019-02-23T00:43:45.094Z,83.20
2019-02-23T00:46:13.336Z,83.30
2019-02-23T00:48:41.563Z,83.00
2019-02-23T00:51:09.818Z,82.90
2019-02-23T00:53:38.049Z,83.00
2019-02-23T00:56:06.263Z,82.80
2019-02-23T00:58:34.519Z,83.00
2019-02-23T01:01:02.762Z,82.60
2019-02-23T01:03:31.018Z,82.80
2019-02-23T01:05:59.246Z,83.20
2019-02-23T01:08:27.583Z,83.10
2019-02-23T01:10:58.363Z,83.00
2019-02-23T01:13:25.750Z,83.20
2019-02-23T01:15:53.987Z,82.80
2019-02-23T01:18:22.250Z,82.80
2019-02-23T01:20:50.489Z,82.80
2019-02-23T01:23:18.726Z,82.90
2019-02-23T01:25:46.962Z,83.20
2019-02-23T01:28:15.270Z,83.40
2019-02-23T01:30:43.524Z,83.50
2019-02-23T01:33:11.782Z,83.30
2019-02-23T01:35:40.031Z,82.70
2019-02-23T01:38:08.272Z,82.60
2019-02-23T01:40:36.522Z,82.40
2019-02-23T01:43:04.758Z,82.50
2019-02-23T01:45:42.085Z,82.60
2019-02-23T01:48:02.959Z,82.50
2019-02-23T01:50:31.200Z,82.50
2019-02-23T01:52:59.419Z,82.70
2019-02-23T01:55:27.687Z,82.80
2019-02-23T01:57:55.923Z,82.80
2019-02-23T02:00:24.827Z,83.10
2019-02-23T02:02:53.081Z,82.60
2019-02-23T02:05:21.309Z,81.80
2019-02-23T02:07:49.838Z,81.60
2019-02-23T02:10:18.068Z,81.90
2019-02-23T02:12:46.305Z,81.90
2019-02-23T02:15:15.312Z,81.70
2019-02-23T02:17:43.559Z,81.80
2019-02-23T02:20:11.857Z,82.10
2019-02-23T02:22:42.819Z,81.70
2019-02-23T02:25:11.074Z,81.60
2019-02-23T02:27:39.321Z,81.20
2019-02-23T02:30:10.086Z,82.10
2019-02-23T02:32:38.401Z,82.60
2019-02-23T02:35:08.655Z,82.90
2019-02-23T02:37:36.884Z,82.80
2019-02-23T02:40:06.656Z,83.00
2019-02-23T02:42:34.908Z,83.20
2019-02-23T02:45:03.152Z,83.20
2019-02-23T02:47:31.380Z,83.60
2019-02-23T02:49:59.639Z,83.60
2019-02-23T02:52:27.887Z,83.70
2019-02-23T02:54:56.102Z,84.70
2019-02-23T02:57:24.352Z,84.80
2019-02-23T02:59:52.584Z,85.20
2019-02-23T03:02:20.848Z,84.80
2019-02-23T03:04:49.059Z,84.50
2019-02-23T03:07:17.292Z,83.80
2019-02-23T03:09:45.546Z,84.10
2019-02-23T03:12:13.777Z,84.80
2019-02-23T03:14:42.010Z,85.40
2019-02-23T03:17:10.251Z,85.70
2019-02-23T03:19:38.503Z,85.20
2019-02-23T03:22:06.761Z,85.70
2019-02-23T03:24:34.990Z,85.50
2019-02-23T03:27:03.243Z,85.70
2019-02-23T03:29:31.473Z,85.90
2019-02-23T03:31:59.707Z,86.20
2019-02-23T03:34:27.956Z,86.10
2019-02-23T03:36:56.190Z,85.80
2019-02-23T03:39:24.457Z,85.90
2019-02-23T03:41:52.698Z,85.50
2019-02-23T03:44:20.949Z,85.30
2019-02-23T03:46:50.824Z,84.80
2019-02-23T03:49:19.081Z,84.80
2019-02-23T03:51:47.310Z,85.10
2019-02-23T03:54:15.541Z,85.20
2019-02-23T03:56:43.801Z,85.30
2019-02-23T03:59:12.051Z,85.40
2019-02-23T04:01:40.291Z,85.40
2019-02-23T04:04:08.533Z,85.80
2019-02-23T04:06:36.764Z,85.40
2019-02-23T04:09:05.445Z,85.30
2019-02-23T04:11:33.692Z,84.90
2019-02-23T04:14:01.950Z,84.50
2019-02-23T04:16:30.179Z,84.30
2019-02-23T04:18:58.426Z,84.30
2019-02-23T04:21:26.675Z,84.10
2019-02-23T04:23:55.374Z,83.90
2019-02-23T04:26:23.937Z,84.80
2019-02-23T04:28:52.170Z,84.90
2019-02-23T04:31:20.471Z,85.50
2019-02-23T04:33:48.722Z,84.90
2019-02-23T04:36:16.977Z,85.10
2019-02-23T04:38:45.212Z,85.30
2019-02-23T04:41:13.458Z,84.90
2019-02-23T04:43:44.027Z,84.80
2019-02-23T04:46:11.659Z,86.00
2019-02-23T04:48:39.886Z,85.20
2019-02-23T04:51:14.434Z,85.30
2019-02-23T04:53:38.111Z,84.90
2019-02-23T04:56:06.345Z,84.60
2019-02-23T04:58:34.589Z,84.10
2019-02-23T05:01:02.832Z,84.40
2019-02-23T05:03:31.068Z,84.10
2019-02-23T05:05:59.308Z,83.80
2019-02-23T05:08:27.570Z,84.10
2019-02-23T05:10:55.798Z,84.20
2019-02-23T05:13:24.096Z,84.10
2019-02-23T05:15:52.365Z,84.40
2019-02-23T05:18:20.578Z,84.70
2019-02-23T05:20:48.830Z,84.60
2019-02-23T05:23:17.086Z,85.70
2019-02-23T05:25:45.342Z,85.40
2019-02-23T05:28:13.579Z,85.50
2019-02-23T05:30:41.827Z,85.80
2019-02-23T05:33:10.055Z,85.90
2019-02-23T05:35:38.313Z,85.90
2019-02-23T05:38:06.544Z,85.60
2019-02-23T05:40:34.770Z,85.40
2019-02-23T05:43:03.038Z,84.80
2019-02-23T05:45:31.256Z,84.50
2019-02-23T05:47:59.508Z,84.70
2019-02-23T05:50:27.749Z,84.60
2019-02-23T05:52:56.070Z,85.00
2019-02-23T05:55:24.308Z,84.90
2019-02-23T05:57:52.533Z,85.00
2019-02-23T06:00:20.772Z,85.00
2019-02-23T06:02:49.001Z,84.80
2019-02-23T06:05:17.244Z,84.90
2019-02-23T06:07:45.510Z,85.20
2019-02-23T06:10:13.759Z,85.30
2019-02-23T06:12:41.992Z,84.90
2019-02-23T06:15:12.078Z,85.70
2019-02-23T06:17:40.329Z,85.40
2019-02-23T06:20:09.200Z,85.30
2019-02-23T06:22:37.447Z,86.20
2019-02-23T06:25:07.315Z,85.10
2019-02-23T06:27:35.552Z,85.10
2019-02-23T06:30:05.946Z,85.10
2019-02-23T06:32:34.211Z,85.30
2019-02-23T06:35:02.436Z,85.00
2019-02-23T06:37:30.655Z,84.60
2019-02-23T06:39:58.905Z,84.30
2019-02-23T06:42:27.156Z,84.10
2019-02-23T06:44:55.397Z,84.00
2019-02-23T06:47:23.622Z,83.50
2019-02-23T06:49:51.862Z,83.40
2019-02-23T06:52:20.115Z,83.30
2019-02-23T06:54:48.392Z,83.30
2019-02-23T06:57:16.673Z,83.40
2019-02-23T06:59:44.915Z,83.20
2019-02-23T07:02:13.202Z,83.30
2019-02-23T07:04:41.483Z,83.40
2019-02-23T07:07:09.713Z,83.70
2019-02-23T07:09:37.953Z,84.40
2019-02-23T07:12:06.196Z,84.40
2019-02-23T07:14:34.452Z,84.30
2019-02-23T07:17:05.004Z,84.50
2019-02-23T07:19:32.630Z,84.20
2019-02-23T07:22:00.879Z,83.90
2019-02-23T07:24:29.122Z,83.90
2019-02-23T07:26:57.432Z,83.70
2019-02-23T07:29:25.681Z,83.50
2019-02-23T07:31:53.922Z,83.10
2019-02-23T07:34:22.162Z,82.90
2019-02-23T07:36:50.389Z,82.80
2019-02-23T07:39:18.627Z,82.20
2019-02-23T07:41:46.890Z,81.30
2019-02-23T07:44:15.115Z,80.80
2019-02-23T07:46:43.436Z,80.30
2019-02-23T07:49:11.660Z,79.70
2019-02-23T07:51:39.935Z,79.60
2019-02-23T07:54:08.164Z,78.50
2019-02-23T07:56:36.437Z,77.30
2019-02-23T07:59:04.767Z,77.60
2019-02-23T08:01:33.028Z,76.60
2019-02-23T08:04:01.240Z,76.30
2019-02-23T08:06:29.504Z,75.70
2019-02-23T08:08:57.740Z,75.00
2019-02-23T08:11:25.972Z,74.40
2019-02-23T08:13:54.228Z,73.40
2019-02-23T08:16:22.469Z,72.80
2019-02-23T08:18:50.788Z,71.90
2019-02-23T08:21:19.018Z,70.20
2019-02-23T08:23:47.287Z,70.90
2019-02-23T08:26:15.525Z,70.80
2019-02-23T08:28:43.746Z,70.60
2019-02-23T08:31:13.425Z,69.30
2019-02-23T08:33:41.831Z,68.90
2019-02-23T08:36:10.094Z,67.50
2019-02-23T08:38:38.355Z,67.30
2019-02-23T08:41:06.599Z,65.80
2019-02-23T08:43:34.828Z,66.30
2019-02-23T08:46:03.080Z,65.80
2019-02-23T08:48:33.395Z,65.10
2019-02-23T08:51:04.088Z,63.30
2019-02-23T08:53:32.325Z,63.10
2019-02-23T08:56:00.573Z,61.80
2019-02-23T08:58:28.831Z,61.40
2019-02-23T09:00:57.082Z,61.40
2019-02-23T09:03:25.330Z,60.70
2019-02-23T09:05:53.566Z,59.80
2019-02-23T09:08:21.819Z,59.50
2019-02-23T09:10:50.052Z,59.20
2019-02-23T09:13:18.307Z,58.90
2019-02-23T09:15:46.541Z,59.20
2019-02-23T09:18:14.786Z,59.10
2019-02-23T09:20:43.018Z,60.50
2019-02-23T09:23:11.315Z,58.30
2019-02-23T09:25:39.597Z,58.30
2019-02-23T09:28:07.848Z,58.20
2019-02-23T09:30:36.091Z,55.90
2019-02-23T09:33:04.324Z,55.60
2019-02-23T09:35:32.581Z,56.30
2019-02-23T09:38:00.834Z,55.00
2019-02-23T09:40:29.071Z,54.80
2019-02-23T09:42:57.291Z,54.50
2019-02-23T09:45:25.550Z,53.40
2019-02-23T09:47:53.792Z,52.70
2019-02-23T09:50:22.054Z,51.90
2019-02-23T09:52:50.296Z,50.60
2019-02-23T09:55:18.552Z,50.60
2019-02-23T09:57:46.788Z,51.20
2019-02-23T10:00:15.030Z,49.40
2019-02-23T10:02:43.285Z,48.40
2019-02-23T10:05:11.517Z,47.90
2019-02-23T10:07:39.770Z,47.90
2019-02-23T10:10:10.607Z,47.60
2019-02-23T10:12:38.840Z,46.70
2019-02-23T10:15:11.295Z,44.90
2019-02-23T10:17:39.543Z,45.20
2019-02-23T10:20:11.811Z,44.30
2019-02-23T10:22:40.048Z,44.70
2019-02-23T10:25:19.057Z,42.40
2019-02-23T10:27:47.368Z,40.60
2019-02-23T10:30:16.677Z,39.00
2019-02-23T10:32:46.535Z,38.80
2019-02-23T10:35:14.783Z,39.10
2019-02-23T10:37:44.773Z,38.50
2019-02-23T10:40:13.205Z,35.50
2019-02-23T10:42:41.457Z,36.00
2019-02-23T10:45:13.266Z,34.80
2019-02-23T10:47:41.518Z,34.20
2019-02-23T10:50:14.251Z,33.00
2019-02-23T10:52:42.498Z,31.70
2019-02-23T10:55:14.954Z,34.40
2019-02-23T10:57:43.210Z,33.80
2019-02-23T11:00:18.621Z,33.10
2019-02-23T11:02:46.860Z,31.40
2019-02-23T11:05:15.663Z,31.60
2019-02-23T11:07:43.916Z,31.80
2019-02-23T11:10:12.148Z,31.20
2019-02-23T11:12:40.409Z,29.30
2019-02-23T11:15:12.844Z,30.20
2019-02-23T11:17:41.072Z,29.10
2019-02-23T11:20:10.472Z,28.80
2019-02-23T11:22:38.708Z,28.20
2019-02-23T11:25:09.583Z,27.60
2019-02-23T11:27:37.850Z,27.20
2019-02-23T11:30:11.042Z,25.00
2019-02-23T11:32:39.274Z,24.60
2019-02-23T11:35:09.379Z,23.50
2019-02-23T11:37:37.594Z,23.90
2019-02-23T11:40:08.673Z,22.10
2019-02-23T11:42:36.934Z,22.10
2019-02-23T11:45:05.808Z,22.30
2019-02-23T11:47:34.027Z,21.60
2019-02-23T11:50:02.266Z,20.80
2019-02-23T11:52:30.681Z,21.10
2019-02-23T11:54:58.922Z,20.60
2019-02-23T11:57:29.096Z,20.80
2019-02-23T11:59:57.360Z,19.30
2019-02-23T12:02:25.638Z,19.70
2019-02-23T12:04:53.966Z,18.30
2019-02-23T12:07:22.284Z,17.80
2019-02-23T12:09:50.661Z,17.50
2019-02-23T12:12:18.931Z,17.20
2019-02-23T12:14:47.174Z,18.60
2019-02-23T12:17:15.430Z,18.70
2019-02-23T12:19:45.312Z,17.30
2019-02-23T12:22:13.564Z,17.30
2019-02-23T12:24:41.858Z,16.40
2019-02-23T12:27:10.106Z,16.00
2019-02-23T12:29:38.355Z,15.50
2019-02-23T12:32:06.633Z,15.20
2019-02-23T12:34:34.871Z,15.80
2019-02-23T12:37:03.099Z,16.00
2019-02-23T12:39:31.372Z,16.70
2019-02-23T12:41:59.613Z,14.90
2019-02-23T12:44:27.836Z,14.40
2019-02-23T12:46:56.055Z,15.20
2019-02-23T12:49:24.375Z,14.00
2019-02-23T12:51:52.647Z,14.60
2019-02-23T12:54:20.879Z,15.70
2019-02-23T12:56:49.110Z,15.40
2019-02-23T12:59:17.418Z,15.50
2019-02-23T13:01:45.664Z,14.40
2019-02-23T13:04:13.914Z,14.00
2019-02-23T13:06:42.135Z,14.30
2019-02-23T13:09:20.984Z,14.30
2019-02-23T13:11:52.475Z,13.10
2019-02-23T13:14:23.978Z,13.80
2019-02-23T13:16:58.789Z,14.00
2019-02-23T13:19:42.408Z,14.20
2019-02-23T13:22:22.872Z,13.80
2019-02-23T13:25:16.401Z,13.70
2019-02-23T13:27:56.352Z,14.10
2019-02-23T13:30:49.232Z,13.30
2019-02-23T13:33:26.788Z,12.70
2019-02-23T13:36:23.846Z,12.70
2019-02-23T13:39:07.161Z,13.20
2019-02-23T13:41:44.561Z,13.40
2019-02-23T13:44:37.168Z,13.30
2019-02-23T13:47:26.098Z,13.70
2019-02-23T13:50:09.384Z,13.10
2019-02-23T13:53:00.203Z,13.50
2019-02-23T13:55:34.596Z,14.00
2019-02-23T13:58:22.842Z,13.90
2019-02-23T14:01:00.284Z,13.70
2019-02-23T14:03:48.864Z,14.90
2019-02-23T14:06:20.331Z,14.90
2019-02-23T14:08:54.493Z,15.30
2019-02-23T14:11:28.917Z,15.70
2019-02-23T14:14:00.412Z,15.30
2019-02-23T14:16:43.941Z,15.80
2019-02-23T14:19:36.397Z,16.10
2019-02-23T14:22:16.891Z,16.50
2019-02-23T14:24:50.905Z,15.70
2019-02-23T14:27:34.467Z,15.90
2019-02-23T14:30:39.489Z,15.60
2019-02-23T14:33:22.595Z,15.10
2019-02-23T14:36:03.113Z,15.70
2019-02-23T14:38:54.108Z,16.70
2019-02-23T14:41:51.390Z,16.50
2019-02-23T14:44:31.868Z,17.40
2019-02-23T14:47:14.944Z,18.00
2019-02-23T14:49:58.116Z,17.70
2019-02-23T14:52:50.801Z,18.60
2019-02-23T14:55:42.299Z,19.00
2019-02-23T14:58:35.039Z,18.60
2019-02-23T15:01:12.200Z,19.00
2019-02-23T15:03:59.467Z,19.50
2019-02-23T15:06:49.336Z,19.10
2019-02-23T15:09:29.598Z,20.00
2019-02-23T15:12:03.840Z,20.80
2019-02-23T15:14:59.120Z,20.30
2019-02-23T15:17:49.756Z,21.20
2019-02-23T15:20:54.905Z,21.00
2019-02-23T15:23:59.240Z,21.50
2019-02-23T15:26:42.713Z,21.00
2019-02-23T15:29:35.544Z,21.80
2019-02-23T15:32:15.785Z,23.00
2019-02-23T15:35:05.317Z,23.40
2019-02-23T15:37:39.607Z,23.20
2019-02-23T15:40:16.786Z,23.80
2019-02-23T15:43:00.556Z,23.90
2019-02-23T15:45:50.225Z,23.70
2019-02-23T15:48:43.776Z,24.60
2019-02-23T15:51:12.001Z,25.00
2019-02-23T15:53:40.334Z,25.00
2019-02-23T15:56:11.251Z,25.20
2019-02-23T15:58:39.497Z,25.00
2019-02-23T16:01:07.765Z,25.30
2019-02-23T16:03:35.998Z,25.70
2019-02-23T16:06:04.217Z,26.10
2019-02-23T16:08:32.468Z,25.70
2019-02-23T16:11:00.716Z,25.50
2019-02-23T16:13:28.969Z,26.20
2019-02-23T16:15:57.215Z,26.20
2019-02-23T16:18:25.445Z,26.90
2019-02-23T16:20:53.735Z,26.20
2019-02-23T16:23:21.961Z,26.70
2019-02-23T16:25:50.202Z,27.30
2019-02-23T16:28:18.442Z,26.30
2019-02-23T16:30:46.672Z,26.20
2019-02-23T16:33:14.927Z,26.30
2019-02-23T16:35:43.162Z,26.40
2019-02-23T16:38:11.394Z,27.40
2019-02-23T16:40:39.649Z,27.00
2019-02-23T16:43:07.906Z,27.00
2019-02-23T16:45:36.118Z,27.30
2019-02-23T16:48:04.360Z,27.80
2019-02-23T16:50:32.639Z,27.60
2019-02-23T16:53:00.915Z,27.80
2019-02-23T16:55:29.124Z,28.20
2019-02-23T16:57:57.363Z,27.90
2019-02-23T17:00:25.593Z,27.60
2019-02-23T17:02:53.840Z,28.50
2019-02-23T17:05:22.087Z,28.30
2019-02-23T17:07:50.326Z,28.30
2019-02-23T17:10:18.556Z,28.30
2019-02-23T17:12:46.789Z,28.20
2019-02-23T17:15:15.050Z,27.90
2019-02-23T17:17:43.262Z,28.00
2019-02-23T17:20:11.673Z,27.90
2019-02-23T17:22:39.906Z,27.80
2019-02-23T17:25:08.228Z,27.60
2019-02-23T17:27:36.691Z,27.70
2019-02-23T17:30:06.919Z,26.80
2019-02-23T17:32:35.194Z,27.10
2019-02-23T17:35:04.044Z,26.60
2019-02-23T17:37:32.291Z,26.40
2019-02-23T17:40:00.555Z,26.50
2019-02-23T17:42:28.820Z,26.70
2019-02-23T17:44:57.135Z,26.40
2019-02-23T17:47:25.360Z,27.20
2019-02-23T17:49:53.603Z,26.90
2019-02-23T17:52:21.850Z,26.50
2019-02-23T17:54:50.083Z,26.40
2019-02-23T17:57:18.377Z,26.50
2019-02-23T17:59:46.617Z,26.30
2019-02-23T18:02:14.858Z,26.10
2019-02-23T18:04:43.099Z,25.50
2019-02-23T18:07:11.312Z,26.10
2019-02-23T18:09:39.575Z,26.00
2019-02-23T18:12:07.813Z,26.60
2019-02-23T18:14:36.054Z,27.30
2019-02-23T18:17:04.314Z,27.20
2019-02-23T18:19:32.518Z,26.70
2019-02-23T18:22:00.735Z,26.70
2019-02-23T18:24:28.983Z,26.70
2019-02-23T18:26:57.235Z,26.50
2019-02-23T18:29:25.548Z,26.90
2019-02-23T18:31:53.763Z,26.80
2019-02-23T18:34:22.009Z,26.70
2019-02-23T18:36:50.247Z,26.60
2019-02-23T18:39:18.486Z,26.70
2019-02-23T18:41:46.730Z,26.60
2019-02-23T18:44:14.966Z,26.90
2019-02-23T18:46:43.209Z,27.00
2019-02-23T18:49:11.453Z,26.80
2019-02-23T18:51:39.693Z,26.40
2019-02-23T18:54:07.953Z,26.10
2019-02-23T18:56:36.146Z,26.80
2019-02-23T18:59:04.408Z,26.20
2019-02-23T19:01:32.632Z,26.50
2019-02-23T19:04:00.857Z,26.70
2019-02-23T19:06:29.108Z,26.20
2019-02-23T19:08:57.333Z,26.40
2019-02-23T19:11:25.558Z,26.60
2019-02-23T19:13:53.790Z,27.30
2019-02-23T19:16:23.363Z,27.80
2019-02-23T19:18:51.754Z,27.10
2019-02-23T19:21:19.980Z,27.60
2019-02-23T19:23:48.266Z,27.50
2019-02-23T19:26:16.506Z,27.30
2019-02-23T19:28:44.758Z,27.80
2019-02-23T19:31:13.002Z,27.90
2019-02-23T19:33:41.231Z,27.20
2019-02-23T19:36:09.482Z,28.10
2019-02-23T19:38:37.744Z,28.20
2019-02-23T19:41:05.948Z,28.60
2019-02-23T19:43:34.190Z,28.60
2019-02-23T19:46:02.415Z,28.50
2019-02-23T19:48:30.662Z,29.00
2019-02-23T19:51:04.742Z,29.70
2019-02-23T19:53:32.963Z,29.30
2019-02-23T19:56:01.198Z,29.00
2019-02-23T19:58:29.430Z,29.30
2019-02-23T20:00:57.690Z,29.40
2019-02-23T20:03:25.891Z,29.70
2019-02-23T20:05:54.136Z,29.60
2019-02-23T20:08:41.792Z,31.00
2019-02-23T20:11:10.052Z,31.20
2019-02-23T20:13:38.286Z,31.70
2019-02-23T20:16:06.523Z,32.80
2019-02-23T20:18:34.739Z,34.10
2019-02-23T20:21:03.002Z,35.00
2019-02-23T20:23:31.241Z,36.50
2019-02-23T20:25:59.472Z,36.80
2019-02-23T20:28:27.717Z,36.90
2019-02-23T20:30:55.970Z,38.60
2019-02-23T20:33:24.212Z,38.10
2019-02-23T20:35:52.431Z,37.90
2019-02-23T20:38:20.677Z,37.40
2019-02-23T20:40:48.900Z,37.30
2019-02-23T20:43:17.146Z,37.80
2019-02-23T20:45:45.431Z,38.30
2019-02-23T20:48:13.694Z,37.90
2019-02-23T20:50:41.994Z,38.10
2019-02-23T20:53:10.308Z,39.00
2019-02-23T20:55:38.547Z,39.20
2019-02-23T20:58:06.848Z,40.50
2019-02-23T21:00:35.102Z,39.90
2019-02-23T21:03:03.329Z,40.40
2019-02-23T21:05:31.574Z,39.50
2019-02-23T21:07:59.883Z,39.80
2019-02-23T21:10:28.245Z,40.50
2019-02-23T21:12:56.540Z,38.40
2019-02-23T21:15:24.769Z,39.30
2019-02-23T21:17:53.009Z,39.50
2019-02-23T21:20:21.230Z,39.20
2019-02-23T21:22:49.501Z,40.60
2019-02-23T21:25:17.717Z,41.20
2019-02-23T21:27:45.998Z,40.80
2019-02-23T21:30:14.242Z,41.10
2019-02-23T21:32:42.457Z,40.90
2019-02-23T21:35:10.706Z,41.70
2019-02-23T21:37:38.966Z,42.00
2019-02-23T21:40:08.942Z,42.30
2019-02-23T21:42:37.165Z,42.00
2019-02-23T21:45:07.584Z,43.00
2019-02-23T21:47:35.846Z,43.00
2019-02-23T21:50:06.264Z,42.70
2019-02-23T21:52:34.491Z,43.00
2019-02-23T21:55:02.753Z,41.80
2019-02-23T21:57:30.954Z,40.60
2019-02-23T21:59:59.330Z,41.40
2019-02-23T22:02:27.571Z,41.40
2019-02-23T22:04:55.803Z,41.50
2019-02-23T22:07:24.027Z,42.30
2019-02-23T22:09:52.274Z,43.00
2019-02-23T22:12:20.504Z,42.90
2019-02-23T22:14:48.764Z,42.90
2019-02-23T22:17:17.048Z,42.90
2019-02-23T22:19:45.275Z,43.50
2019-02-23T22:22:13.519Z,44.10
2019-02-23T22:24:41.742Z,44.80
2019-02-23T22:27:09.978Z,44.70
2019-02-23T22:29:38.222Z,45.10
2019-02-23T22:32:06.448Z,45.20
2019-02-23T22:34:34.763Z,45.00
2019-02-23T22:37:02.984Z,45.20
2019-02-23T22:39:31.226Z,45.70
2019-02-23T22:41:59.442Z,44.70
2019-02-23T22:44:27.718Z,43.80
2019-02-23T22:46:55.976Z,43.90
2019-02-23T22:49:24.212Z,44.50
2019-02-23T22:51:52.450Z,44.30
2019-02-23T22:54:20.693Z,44.70
2019-02-23T22:56:48.950Z,43.90
2019-02-23T22:59:17.176Z,44.70
2019-02-23T23:01:45.482Z,44.30
2019-02-23T23:04:13.727Z,43.20
2019-02-23T23:06:41.960Z,42.50
2019-02-23T23:09:11.899Z,41.70
2019-02-23T23:11:40.198Z,42.60
2019-02-23T23:14:08.470Z,43.40
2019-02-23T23:16:36.691Z,43.70
2019-02-23T23:19:05.009Z,43.10
2019-02-23T23:21:33.254Z,43.90
2019-02-23T23:24:01.475Z,43.00
2019-02-23T23:26:29.735Z,43.50
2019-02-23T23:28:57.959Z,43.40
2019-02-23T23:31:26.195Z,42.90
2019-02-23T23:33:54.425Z,42.70
2019-02-23T23:36:22.655Z,43.50
2019-02-23T23:38:51.778Z,43.50
2019-02-23T23:41:20.017Z,42.50
2019-02-23T23:43:48.256Z,43.00
2019-02-23T23:46:16.530Z,44.10
2019-02-23T23:48:44.742Z,42.60
2019-02-23T23:51:12.986Z,43.20
2019-02-23T23:53:41.196Z,43.50
2019-02-23T23:56:09.456Z,43.80
2019-02-23T23:58:37.684Z,43.00
